createdAt,value
2022-08-17T00:02:26.769Z,61.61
2022-08-17T00:04:54.289Z,61.83
2022-08-17T00:07:20.850Z,61.68
2022-08-17T00:09:47.370Z,61.94
2022-08-17T00:12:43.565Z,61.63
2022-08-17T00:15:01.064Z,62.07
2022-08-17T00:17:28.077Z,61.98
2022-08-17T00:19:54.608Z,62.05
2022-08-17T00:22:34.933Z,62.14
2022-08-17T00:25:05.551Z,61.99
2022-08-17T00:27:32.126Z,61.65
2022-08-17T00:29:58.687Z,61.92
2022-08-17T00:33:14.716Z,61.66
2022-08-17T00:35:15.071Z,61.70
2022-08-17T00:37:41.965Z,61.97
2022-08-17T00:40:10.978Z,61.95
2022-08-17T00:42:38.346Z,61.63
2022-08-17T00:45:08.301Z,61.62
2022-08-17T00:47:34.972Z,61.80
2022-08-17T00:50:01.853Z,61.54
2022-08-17T00:52:33.407Z,61.89
2022-08-17T00:55:01.091Z,61.54
2022-08-17T00:57:34.810Z,61.60
2022-08-17T01:00:08.664Z,62.00
2022-08-17T01:02:43.240Z,62.22
2022-08-17T01:05:18.471Z,62.26
2022-08-17T01:07:47.172Z,62.59
2022-08-17T01:11:00.038Z,62.59
2022-08-17T01:13:02.621Z,62.48
2022-08-17T01:15:31.445Z,62.48
2022-08-17T01:17:58.065Z,62.83
2022-08-17T01:20:25.044Z,62.78
2022-08-17T01:22:52.035Z,62.90
2022-08-17T01:25:19.427Z,62.50
2022-08-17T01:27:46.387Z,62.31
2022-08-17T01:30:57.128Z,62.24
2022-08-17T01:32:59.801Z,61.66
2022-08-17T01:35:26.401Z,61.77
2022-08-17T01:37:52.996Z,62.38
2022-08-17T01:40:39.271Z,62.57
2022-08-17T01:43:07.365Z,62.31
2022-08-17T01:45:39.909Z,62.80
2022-08-17T01:48:06.689Z,62.63
2022-08-17T01:50:37.864Z,62.74
2022-08-17T01:53:08.661Z,62.80
2022-08-17T01:55:41.376Z,62.70
2022-08-17T01:58:09.777Z,62.36
2022-08-17T02:00:46.849Z,62.15
2022-08-17T02:03:25.306Z,62.58
2022-08-17T02:05:53.225Z,62.64
2022-08-17T02:08:20.739Z,62.63
2022-08-17T02:11:08.927Z,62.36
2022-08-17T02:13:38.292Z,62.56
2022-08-17T02:16:05.056Z,61.80
2022-08-17T02:18:31.662Z,61.70
2022-08-17T02:20:58.203Z,61.90
2022-08-17T02:23:27.243Z,62.08
2022-08-17T02:25:54.851Z,61.69
2022-08-17T02:28:21.375Z,61.91
2022-08-17T02:31:00.992Z,61.58
2022-08-17T02:33:43.114Z,61.94
2022-08-17T02:36:12.647Z,62.21
2022-08-17T02:38:40.609Z,62.12
2022-08-17T02:41:07.151Z,62.33
2022-08-17T02:43:33.892Z,61.79
2022-08-17T02:46:00.476Z,62.21
2022-08-17T02:48:30.573Z,62.05
2022-08-17T02:50:59.017Z,62.06
2022-08-17T02:53:25.907Z,61.72
2022-08-17T02:55:52.975Z,61.55
2022-08-17T02:58:29.572Z,61.75
2022-08-17T03:01:03.702Z,61.91
2022-08-17T03:03:30.274Z,61.91
2022-08-17T03:05:56.796Z,61.75
2022-08-17T03:08:23.546Z,61.50
2022-08-17T03:10:50.526Z,61.37
2022-08-17T03:13:17.471Z,61.57
2022-08-17T03:15:45.266Z,61.76
2022-08-17T03:18:14.392Z,61.76
2022-08-17T03:20:52.714Z,61.63
2022-08-17T03:23:19.272Z,61.73
2022-08-17T03:25:52.981Z,61.28
2022-08-17T03:28:20.909Z,61.68
2022-08-17T03:30:47.428Z,61.65
2022-08-17T03:33:14.628Z,61.59
2022-08-17T03:35:41.320Z,61.23
2022-08-17T03:38:10.139Z,61.44
2022-08-17T03:40:57.713Z,61.34
2022-08-17T03:43:23.610Z,61.47
2022-08-17T03:46:24.887Z,61.08
2022-08-17T03:49:14.045Z,61.14
2022-08-17T03:51:58.992Z,61.09
2022-08-17T03:54:43.822Z,61.02
2022-08-17T03:57:11.582Z,61.40
2022-08-17T03:59:38.838Z,61.00
2022-08-17T04:02:11.930Z,61.13
2022-08-17T04:04:38.849Z,61.10
2022-08-17T04:07:07.695Z,60.97
2022-08-17T04:09:34.667Z,60.63
2022-08-17T04:12:04.587Z,60.42
2022-08-17T04:14:36.695Z,60.82
2022-08-17T04:17:20.062Z,60.31
2022-08-17T04:19:46.795Z,60.57
2022-08-17T04:22:33.070Z,60.20
2022-08-17T04:25:01.155Z,60.15
2022-08-17T04:27:27.740Z,59.85
2022-08-17T04:29:55.839Z,59.72
2022-08-17T04:32:59.336Z,59.98
2022-08-17T04:35:10.198Z,59.85
2022-08-17T04:37:36.739Z,59.67
2022-08-17T04:40:22.618Z,60.22
2022-08-17T04:43:03.104Z,60.99
2022-08-17T04:45:32.059Z,61.11
2022-08-17T04:48:00.825Z,60.80
2022-08-17T04:50:27.686Z,61.23
2022-08-17T04:52:54.300Z,60.94
2022-08-17T04:55:21.016Z,61.02
2022-08-17T04:57:47.621Z,60.92
2022-08-17T05:00:14.483Z,60.65
2022-08-17T05:02:49.749Z,60.44
2022-08-17T05:05:28.125Z,60.32
2022-08-17T05:07:56.298Z,60.53
2022-08-17T05:10:24.508Z,59.94
2022-08-17T05:13:05.434Z,59.84
2022-08-17T05:15:33.149Z,59.97
2022-08-17T05:18:02.979Z,59.43
2022-08-17T05:20:29.558Z,58.91
2022-08-17T05:22:59.255Z,58.48
2022-08-17T05:25:29.043Z,58.27
2022-08-17T05:27:59.267Z,57.99
2022-08-17T05:30:28.593Z,58.06
2022-08-17T05:33:02.243Z,58.30
2022-08-17T05:35:31.420Z,58.04
2022-08-17T05:37:58.753Z,57.56
2022-08-17T05:40:25.979Z,57.81
2022-08-17T05:43:23.631Z,57.27
2022-08-17T05:45:57.646Z,57.29
2022-08-17T05:48:35.598Z,57.32
2022-08-17T05:51:22.720Z,57.07
2022-08-17T05:54:13.581Z,57.30
2022-08-17T05:56:52.072Z,56.93
2022-08-17T05:59:52.752Z,56.68
2022-08-17T06:02:30.281Z,56.50
2022-08-17T06:05:45.019Z,56.58
2022-08-17T06:08:40.072Z,56.69
2022-08-17T06:11:24.756Z,56.57
2022-08-17T06:13:57.525Z,56.62
2022-08-17T06:16:34.044Z,56.53
2022-08-17T06:19:17.760Z,56.60
2022-08-17T06:21:47.581Z,56.92
2022-08-17T06:24:47.187Z,56.56
2022-08-17T06:27:19.966Z,56.53
2022-08-17T06:29:53.838Z,56.44
2022-08-17T06:32:20.636Z,56.73
2022-08-17T06:34:47.548Z,56.53
2022-08-17T06:37:20.141Z,56.24
2022-08-17T06:40:08.464Z,56.49
2022-08-17T06:42:55.077Z,56.17
2022-08-17T06:45:42.363Z,56.00
2022-08-17T06:48:26.912Z,56.04
2022-08-17T06:51:00.050Z,56.01
2022-08-17T06:54:00.713Z,56.05
2022-08-17T06:56:54.446Z,56.01
2022-08-17T06:59:26.223Z,55.79
2022-08-17T07:02:05.606Z,55.71
2022-08-17T07:04:34.262Z,56.00
2022-08-17T07:07:27.042Z,55.70
2022-08-17T07:09:54.967Z,56.02
2022-08-17T07:12:38.566Z,56.09
2022-08-17T07:15:14.128Z,56.08
2022-08-17T07:17:56.857Z,56.01
2022-08-17T07:20:23.481Z,56.18
2022-08-17T07:22:59.711Z,56.54
2022-08-17T07:25:28.062Z,56.31
2022-08-17T07:27:59.688Z,56.42
2022-08-17T07:30:29.369Z,56.78
2022-08-17T07:33:20.150Z,56.91
2022-08-17T07:35:48.461Z,56.87
2022-08-17T07:38:27.713Z,56.74
2022-08-17T07:40:57.654Z,56.96
2022-08-17T07:43:47.974Z,56.87
2022-08-17T07:46:36.782Z,56.30
2022-08-17T07:49:03.486Z,56.19
2022-08-17T07:51:39.532Z,55.83
2022-08-17T07:54:15.354Z,55.74
2022-08-17T07:56:53.443Z,55.42
2022-08-17T07:59:33.536Z,55.42
2022-08-17T08:02:05.357Z,55.20
2022-08-17T08:04:59.313Z,55.19
2022-08-17T08:07:26.775Z,54.80
2022-08-17T08:09:58.984Z,54.82
2022-08-17T08:12:45.123Z,54.60
2022-08-17T08:15:20.073Z,54.40
2022-08-17T08:17:57.577Z,54.78
2022-08-17T08:20:51.958Z,55.04
2022-08-17T08:23:29.527Z,55.51
2022-08-17T08:26:08.105Z,56.11
2022-08-17T08:28:37.987Z,56.30
2022-08-17T08:31:24.447Z,56.45
2022-08-17T08:34:03.339Z,57.01
2022-08-17T08:37:14.160Z,57.21
2022-08-17T08:39:52.984Z,57.30
2022-08-17T08:42:28.013Z,57.20
2022-08-17T08:45:18.109Z,57.33
2022-08-17T08:47:51.113Z,57.54
2022-08-17T08:50:56.173Z,57.49
2022-08-17T08:53:39.721Z,57.33
2022-08-17T08:56:20.410Z,57.28
2022-08-17T08:59:08.142Z,57.50
2022-08-17T09:01:39.743Z,57.44
2022-08-17T09:04:24.843Z,57.51
2022-08-17T09:06:57.889Z,57.26
2022-08-17T09:09:46.613Z,57.52
2022-08-17T09:12:31.519Z,57.47
2022-08-17T09:15:03.754Z,57.37
2022-08-17T09:17:46.078Z,57.80
2022-08-17T09:20:27.988Z,57.78
2022-08-17T09:23:09.227Z,57.80
2022-08-17T09:25:49.908Z,57.60
2022-08-17T09:28:21.472Z,57.54
2022-08-17T09:30:51.222Z,57.50
2022-08-17T09:33:23.081Z,57.20
2022-08-17T09:35:55.975Z,57.05
2022-08-17T09:38:33.012Z,57.09
2022-08-17T09:41:34.100Z,56.99
2022-08-17T09:44:13.523Z,56.65
2022-08-17T09:47:04.856Z,56.65
2022-08-17T09:49:46.554Z,56.89
2022-08-17T09:52:27.869Z,56.53
2022-08-17T09:54:54.596Z,56.27
2022-08-17T09:57:42.591Z,55.90
2022-08-17T10:00:23.657Z,56.09
2022-08-17T10:03:05.464Z,56.05
2022-08-17T10:06:07.710Z,55.99
2022-08-17T10:08:55.488Z,55.84
2022-08-17T10:11:48.270Z,56.09
2022-08-17T10:14:44.500Z,56.62
2022-08-17T10:17:29.242Z,57.19
2022-08-17T10:20:17.879Z,57.21
2022-08-17T10:23:14.689Z,57.59
2022-08-17T10:26:08.781Z,57.82
2022-08-17T10:29:02.894Z,57.93
2022-08-17T10:31:35.084Z,57.79
2022-08-17T10:34:40.409Z,57.78
2022-08-17T10:37:33.598Z,57.67
2022-08-17T10:40:27.865Z,57.78
2022-08-17T10:43:22.752Z,58.08
2022-08-17T10:46:13.377Z,58.55
2022-08-17T10:49:18.916Z,58.49
2022-08-17T10:51:56.776Z,58.64
2022-08-17T10:54:41.537Z,58.74
2022-08-17T10:57:23.405Z,58.96
2022-08-17T10:59:52.116Z,59.24
2022-08-17T11:02:22.391Z,58.92
2022-08-17T11:05:01.058Z,58.94
2022-08-17T11:07:43.797Z,58.82
2022-08-17T11:10:19.579Z,58.96
2022-08-17T11:13:01.298Z,58.99
2022-08-17T11:15:33.918Z,58.97
2022-08-17T11:18:13.236Z,59.22
2022-08-17T11:21:30.313Z,59.18
2022-08-17T11:23:57.304Z,59.61
2022-08-17T11:26:27.743Z,59.63
2022-08-17T11:29:00.045Z,59.50
2022-08-17T11:31:42.528Z,59.55
2022-08-17T11:34:40.162Z,59.97
2022-08-17T11:37:17.547Z,59.97
2022-08-17T11:40:08.889Z,60.06
2022-08-17T11:42:58.433Z,60.00
2022-08-17T11:45:32.626Z,60.09
2022-08-17T11:48:36.749Z,59.73
2022-08-17T11:51:34.921Z,60.03
2022-08-17T11:54:33.462Z,59.94
2022-08-17T11:57:46.093Z,59.72
2022-08-17T12:00:51.812Z,59.67
2022-08-17T12:03:32.035Z,59.78
2022-08-17T12:06:29.662Z,60.02
2022-08-17T12:09:06.805Z,60.56
2022-08-17T12:12:11.350Z,61.01
2022-08-17T12:15:05.703Z,61.63
2022-08-17T12:17:40.691Z,61.57
2022-08-17T12:20:21.515Z,61.55
2022-08-17T12:22:57.670Z,61.26
2022-08-17T12:25:35.956Z,61.01
2022-08-17T12:28:06.168Z,60.85
2022-08-17T12:30:34.798Z,61.19
2022-08-17T12:33:01.374Z,61.44
2022-08-17T12:35:35.167Z,61.53
2022-08-17T12:38:03.381Z,61.96
2022-08-17T12:40:31.666Z,62.00
2022-08-17T12:43:07.728Z,62.17
2022-08-17T12:45:36.798Z,62.52
2022-08-17T12:48:07.909Z,62.53
2022-08-17T12:50:38.639Z,62.64
2022-08-17T12:53:15.880Z,62.34
2022-08-17T12:55:44.343Z,62.43
2022-08-17T12:58:14.441Z,62.60
2022-08-17T13:00:48.328Z,62.61
2022-08-17T13:03:21.473Z,62.96
2022-08-17T13:06:08.027Z,62.75
2022-08-17T13:08:47.971Z,62.59
2022-08-17T13:11:14.610Z,62.48
2022-08-17T13:13:43.935Z,62.53
2022-08-17T13:16:14.391Z,62.66
2022-08-17T13:18:40.927Z,62.58
2022-08-17T13:21:30.335Z,62.81
2022-08-17T13:24:04.274Z,62.60
2022-08-17T13:26:33.547Z,62.74
2022-08-17T13:29:01.791Z,62.80
2022-08-17T13:31:28.328Z,63.13
2022-08-17T13:34:26.855Z,62.70
2022-08-17T13:37:17.640Z,62.92
2022-08-17T13:39:47.427Z,62.96
2022-08-17T13:42:52.455Z,63.05
2022-08-17T13:45:38.960Z,62.91
2022-08-17T13:48:11.856Z,62.88
2022-08-17T13:50:56.209Z,63.03
2022-08-17T13:53:26.330Z,63.10
2022-08-17T13:56:07.343Z,62.73
2022-08-17T13:58:57.637Z,63.02
2022-08-17T14:01:47.489Z,63.15
2022-08-17T14:04:21.643Z,63.19
2022-08-17T14:06:54.388Z,63.47
2022-08-17T14:09:24.869Z,63.68
2022-08-17T14:11:51.961Z,63.58
2022-08-17T14:14:19.031Z,63.75
2022-08-17T14:16:50.990Z,63.72
2022-08-17T14:19:18.060Z,64.00
2022-08-17T14:21:45.880Z,64.21
2022-08-17T14:24:27.690Z,64.39
2022-08-17T14:26:54.900Z,64.44
2022-08-17T14:29:24.135Z,64.45
2022-08-17T14:31:54.442Z,64.72
2022-08-17T14:34:22.820Z,65.00
2022-08-17T14:36:49.406Z,65.07
2022-08-17T14:39:17.345Z,65.18
2022-08-17T14:41:44.296Z,64.82
2022-08-17T14:44:12.956Z,65.09
2022-08-17T14:46:41.483Z,65.56
2022-08-17T14:49:11.354Z,65.19
2022-08-17T14:51:43.701Z,65.42
2022-08-17T14:54:12.069Z,65.15
2022-08-17T14:57:24.855Z,65.17
2022-08-17T14:59:45.525Z,64.59
2022-08-17T15:02:13.002Z,64.33
2022-08-17T15:04:45.511Z,64.88
2022-08-17T15:07:12.434Z,64.73
2022-08-17T15:09:39.123Z,65.05
2022-08-17T15:12:06.711Z,64.49
2022-08-17T15:14:35.416Z,64.56
2022-08-17T15:17:04.723Z,64.13
2022-08-17T15:19:31.258Z,64.13
2022-08-17T15:21:57.980Z,64.26
2022-08-17T15:24:24.521Z,64.18
2022-08-17T15:26:51.504Z,63.77
2022-08-17T15:29:18.101Z,63.52
2022-08-17T15:31:44.743Z,63.70
2022-08-17T15:34:11.896Z,63.27
2022-08-17T15:36:38.904Z,63.56
2022-08-17T15:39:14.479Z,63.33
2022-08-17T15:41:47.286Z,63.06
2022-08-17T15:44:32.457Z,62.73
2022-08-17T15:47:01.686Z,63.05
2022-08-17T15:49:28.203Z,62.96
2022-08-17T15:51:54.881Z,63.08
2022-08-17T15:54:22.825Z,62.76
2022-08-17T15:56:50.004Z,62.90
2022-08-17T15:59:16.674Z,62.81
2022-08-17T16:03:14.863Z,63.04
2022-08-17T16:04:31.936Z,62.57
2022-08-17T16:06:59.642Z,62.80
2022-08-17T16:09:26.176Z,62.94
2022-08-17T16:11:55.655Z,63.01
2022-08-17T16:14:23.141Z,62.64
2022-08-17T16:16:50.736Z,62.75
2022-08-17T16:19:17.282Z,62.75
2022-08-17T16:21:43.802Z,62.67
2022-08-17T16:24:13.245Z,62.57
2022-08-17T16:26:40.534Z,62.67
2022-08-17T16:29:08.047Z,62.70
2022-08-17T16:31:36.467Z,62.73
2022-08-17T16:34:18.024Z,62.68
2022-08-17T16:36:55.558Z,62.77
2022-08-17T16:39:27.185Z,62.52
2022-08-17T16:41:54.196Z,63.01
2022-08-17T16:44:21.988Z,62.64
2022-08-17T16:46:50.374Z,62.79
2022-08-17T16:49:35.613Z,62.55
2022-08-17T16:52:05.509Z,62.85
2022-08-17T16:54:32.635Z,62.42
2022-08-17T16:56:59.167Z,62.52
2022-08-17T16:59:38.161Z,62.54
2022-08-17T17:02:11.142Z,62.22
2022-08-17T17:04:43.559Z,61.88
2022-08-17T17:07:37.866Z,62.52
2022-08-17T17:10:20.008Z,62.71
2022-08-17T17:13:03.894Z,62.79
2022-08-17T17:16:05.994Z,62.55
2022-08-17T17:18:43.742Z,62.95
2022-08-17T17:21:14.804Z,63.01
2022-08-17T17:23:50.420Z,63.02
2022-08-17T17:26:21.596Z,63.04
2022-08-17T17:29:01.013Z,62.54
2022-08-17T17:31:33.731Z,62.60
2022-08-17T17:34:03.941Z,62.61
2022-08-17T17:36:56.489Z,62.51
2022-08-17T17:39:43.798Z,62.43
2022-08-17T17:42:14.498Z,62.47
2022-08-17T17:45:30.048Z,62.67
2022-08-17T17:47:57.196Z,62.26
2022-08-17T17:50:37.662Z,62.16
2022-08-17T17:53:09.387Z,62.09
2022-08-17T17:55:42.716Z,62.08
2022-08-17T17:58:28.426Z,61.67
2022-08-17T18:01:13.953Z,61.78
2022-08-17T18:04:17.626Z,61.92
2022-08-17T18:07:05.587Z,62.41
2022-08-17T18:10:01.744Z,62.04
2022-08-17T18:12:53.411Z,62.00
2022-08-17T18:15:37.648Z,62.34
2022-08-17T18:18:19.757Z,62.39
2022-08-17T18:20:53.884Z,62.10
2022-08-17T18:23:28.013Z,62.03
2022-08-17T18:25:54.857Z,62.15
2022-08-17T18:28:22.641Z,61.98
2022-08-17T18:31:11.156Z,61.97
2022-08-17T18:33:40.313Z,61.90
2022-08-17T18:36:07.417Z,62.35
2022-08-17T18:38:36.472Z,62.38
2022-08-17T18:41:23.747Z,62.38
2022-08-17T18:44:03.233Z,61.84
2022-08-17T18:46:36.585Z,61.67
2022-08-17T18:49:07.729Z,61.51
2022-08-17T18:51:42.141Z,61.76
2022-08-17T18:54:24.037Z,61.77
2022-08-17T18:56:58.947Z,61.45
2022-08-17T18:59:44.572Z,61.30
2022-08-17T19:02:34.648Z,61.33
2022-08-17T19:05:30.975Z,61.65
2022-08-17T19:08:23.925Z,61.27
2022-08-17T19:10:57.125Z,61.66
2022-08-17T19:14:08.909Z,61.88
2022-08-17T19:17:00.877Z,61.97
2022-08-17T19:19:39.111Z,62.00
2022-08-17T19:22:28.936Z,62.56
2022-08-17T19:25:03.671Z,62.60
2022-08-17T19:27:41.906Z,62.60
2022-08-17T19:30:14.586Z,62.57
2022-08-17T19:32:41.367Z,62.69
2022-08-17T19:35:13.582Z,63.04
2022-08-17T19:38:12.970Z,63.22
2022-08-17T19:41:02.090Z,62.94
2022-08-17T19:43:34.718Z,63.27
2022-08-17T19:46:25.960Z,63.19
2022-08-17T19:48:52.518Z,63.08
2022-08-17T19:51:36.409Z,63.06
2022-08-17T19:54:31.110Z,63.16
2022-08-17T19:57:11.769Z,63.02
2022-08-17T19:59:54.042Z,63.00
2022-08-17T20:02:28.940Z,62.93
2022-08-17T20:04:59.786Z,63.00
2022-08-17T20:07:30.567Z,62.91
2022-08-17T20:10:08.084Z,63.03
2022-08-17T20:12:38.979Z,63.08
2022-08-17T20:15:05.705Z,63.20
2022-08-17T20:17:37.309Z,63.24
2022-08-17T20:20:19.802Z,62.90
2022-08-17T20:23:05.197Z,62.75
2022-08-17T20:25:56.444Z,62.95
2022-08-17T20:28:30.505Z,63.10
2022-08-17T20:30:58.231Z,63.11
2022-08-17T20:33:27.830Z,63.05
2022-08-17T20:36:03.375Z,62.78
2022-08-17T20:38:46.718Z,62.74
2022-08-17T20:41:20.840Z,63.14
2022-08-17T20:43:56.847Z,63.12
2022-08-17T20:46:29.074Z,62.80
2022-08-17T20:48:59.880Z,63.17
2022-08-17T20:51:40.525Z,63.13
2022-08-17T20:54:19.128Z,63.35
2022-08-17T20:56:46.609Z,63.29
2022-08-17T20:59:30.335Z,62.83
2022-08-17T21:02:08.887Z,62.60
2022-08-17T21:04:47.433Z,62.39
2022-08-17T21:07:53.935Z,62.19
2022-08-17T21:10:23.417Z,62.03
2022-08-17T21:12:49.883Z,61.75
2022-08-17T21:15:30.636Z,61.80
2022-08-17T21:18:38.587Z,62.05
2022-08-17T21:21:20.098Z,61.98
2022-08-17T21:24:20.468Z,62.46
2022-08-17T21:27:28.637Z,62.13
2022-08-17T21:30:10.028Z,62.26
2022-08-17T21:32:40.393Z,61.89
2022-08-17T21:35:12.359Z,62.22
2022-08-17T21:37:45.617Z,61.83
2022-08-17T21:40:18.421Z,61.63
2022-08-17T21:42:53.932Z,61.67
2022-08-17T21:45:35.562Z,61.97
2022-08-17T21:48:14.144Z,61.67
2022-08-17T21:50:44.511Z,61.59
2022-08-17T21:53:23.825Z,61.67
2022-08-17T21:55:52.299Z,61.51
2022-08-17T21:58:36.658Z,61.34
2022-08-17T22:01:21.014Z,61.13
2022-08-17T22:04:00.333Z,61.38
2022-08-17T22:06:34.644Z,61.55
2022-08-17T22:09:10.312Z,61.92
2022-08-17T22:11:52.734Z,61.60
2022-08-17T22:14:52.486Z,60.96
2022-08-17T22:17:21.656Z,60.89
2022-08-17T22:19:50.283Z,61.41
2022-08-17T22:23:08.021Z,61.21
2022-08-17T22:25:37.815Z,61.13
2022-08-17T22:28:06.960Z,60.72
2022-08-17T22:30:37.617Z,60.88
2022-08-17T22:33:40.970Z,61.01
2022-08-17T22:36:24.557Z,60.81
2022-08-17T22:38:56.811Z,60.92
2022-08-17T22:41:34.711Z,60.69
2022-08-17T22:44:14.411Z,60.67
2022-08-17T22:47:02.791Z,60.81
2022-08-17T22:49:38.468Z,60.53
2022-08-17T22:52:32.376Z,60.09
2022-08-17T22:55:20.525Z,59.50
2022-08-17T22:58:06.311Z,59.23
2022-08-17T23:00:42.131Z,59.00
2022-08-17T23:03:17.768Z,58.97
2022-08-17T23:06:03.443Z,58.69
2022-08-17T23:08:31.035Z,58.84
2022-08-17T23:10:59.728Z,58.51
2022-08-17T23:13:27.408Z,58.50
2022-08-17T23:15:54.019Z,58.71
2022-08-17T23:18:20.558Z,58.31
2022-08-17T23:20:47.124Z,58.31
2022-08-17T23:23:14.349Z,58.40
2022-08-17T23:25:44.534Z,58.58
2022-08-17T23:28:11.379Z,58.26
2022-08-17T23:30:42.863Z,58.61
2022-08-17T23:33:29.920Z,58.53
2022-08-17T23:35:58.793Z,58.90
2022-08-17T23:38:28.190Z,58.84
2022-08-17T23:40:55.648Z,58.44
2022-08-17T23:43:25.556Z,58.43
2022-08-17T23:45:56.170Z,58.27
2022-08-17T23:48:34.130Z,57.99
2022-08-17T23:51:10.999Z,57.84
2022-08-17T23:53:41.838Z,58.09
2022-08-17T23:56:11.120Z,58.51
2022-08-17T23:58:42.682Z,58.72
